Terminal Aerodrome Forecast
Issued by NWS

Home | Current Version | Previous Version | Text Only | Print | Product List | Glossary On
Versions: 1 2 3 4 5 6 7 8 9 10 11 12 13 14 15 16 17 18 19 20 21 22
000
FTUS44 KOHX 101100
TAFCKV
TAF
KCKV 101135Z 1012/1112 VRB03KT P6SM SKC
      TEMPO 1012/1013 00000KT 2SM BR
     FM101600 36007KT P6SM SCT050
     FM110200 00000KT P6SM SKC
     FM110900 00000KT 4SM BR SKC=

USA.gov is the U.S. government's official web portal to all federal, state and local government web resources and services.